Detalii statie SILVAUR IMPEX [00001CFE]

Toti senzorii

Date Temperatura solului [C]Precipitatii [mm]Voltaj baterie [mV]Leaf Wetness [Min]HC Air temperature [C]HC Relative humidity [%]Punctul de roua [C]
medieminmaxsumaultimatimpmedieminmaxmediemediemin
2017-12-10 22:00:00 0 6356 -3.81 -4.25 -3.16 61.85 -10 -10.4
2017-12-10 23:00:00 0 6346 -3.59 -3.88 -3.3 68.79 -8.3 -8.9
2017-12-11 00:00:00 0 6356 -3.07 -3.21 -2.87 68.08 -8 -8.4
2017-12-11 01:00:00 0 6346 -3.14 -3.37 -2.81 67.93 -8.1 -8.4
2017-12-11 02:00:00 0 6336 -2.91 -3.2 -2.62 67.51 -8 -8.6
2017-12-11 03:00:00 0 6336 -2.34 -2.6 -2.16 63.35 -8.3 -8.7
2017-12-11 04:00:00 0 6318 -2.13 -2.33 -2 61.49 -8.4 -9
2017-12-11 05:00:00 0 6318 -2.32 -2.69 -2.13 60.06 -9 -9.9
2017-12-11 06:00:00 0 6308 -1.91 -2.26 -1.73 53.93 -10 -10.6
2017-12-11 07:00:00 0 6298 -1.67 -1.77 -1.57 53.45 -9.8 -10.8
2017-12-11 08:00:00 0 6288 -1.39 -1.64 -1.17 57.69 -8.6 -9.3
2017-12-11 09:00:00 0 6268 -0.78 -1.08 -0.49 59.46 -7.6 -8
2017-12-11 10:00:00 0 6318 0.07 -0.38 0.46 54.56 -7.9 -8.7
2017-12-11 11:00:00 0 6356 0.37 0.08 0.63 62.81 -5.9 -7.8
2017-12-11 12:00:00 0 6572 1.44 0.86 2.66 59.34 -5.6 -6.8
2017-12-11 13:00:00 0 6552 2.31 2.01 2.7 57.24 -5.2 -5.5
2017-12-11 14:00:00 0.2 6542 3.06 2.64 3.82 55.27 -5.1 -5.8
2017-12-11 15:00:00 0.2 6522 3.9 3.15 4.3 52.76 -4.8 -5.2
2017-12-11 16:00:00 0.2 6454 3.79 3.49 4.09 54.28 -4.6 -5.3
2017-12-11 17:00:00 0 6424 2.59 1.69 3.58 60.73 -4.3 -4.8
2017-12-11 18:00:00 0 6396 1.09 0.86 1.64 74.87 -2.9 -3.6
2017-12-11 19:00:00 0 6366 0.93 0.81 1.11 79.06 -2.2 -2.7
2017-12-11 20:00:00 0 6356 0.93 0.67 1.23 79 -2.3 -2.6
2017-12-11 21:00:00 0 6366 0.72 0.45 1.03 81 -2.1 -2.5
2017-12-11 22:00:00 0 6336 0.62 0.38 0.76 82.6 -1.9 -2.2
2017-12-11 23:00:00 0 6356 0.39 0.24 0.64 83.73 -2 -2.1
2017-12-12 00:00:00 0 6346 0.46 0.35 0.6 83.13 -2 -2.2
2017-12-12 01:00:00 0 6318 0.55 0.39 0.82 76.6 0
2017-12-12 02:00:00 0 6328 0.82 0.73 0.92 82.35 -1.8 -2.1
2017-12-12 03:00:00 0 6318 0.95 0.77 1.08 81.19 -1.9 -2.1
2017-12-12 04:00:00 0 6318 0.82 0.69 0.98 83.26 -1.7 -2.1
2017-12-12 05:00:00 0 6298 0.74 0.58 0.86 83.57 -1.7 -1.9
2017-12-12 06:00:00 0 6298 0.84 0.73 0.94 83.47 -1.6 -1.9
2017-12-12 07:00:00 0 6278 0.78 0.67 0.98 82.47 -1.8 -2
2017-12-12 08:00:00 0 6288 1.49 0.83 1.91 74.98 -2.5 -3.3
2017-12-12 09:00:00 0 6308 1.64 1.37 1.93 73.17 -2.6 -3.3
2017-12-12 10:00:00 0 6406 2.33 1.88 3.08 72.27 -2.1 -2.5
2017-12-12 11:00:00 0.2 6464 3.24 2.99 3.55 68.47 -2 -2.4
2017-12-12 12:00:00 0.2 6494 4.44 3.74 5.59 65.37 -1.5 -1.9
2017-12-12 13:00:00 0.2 6542 6.72 5.66 7.93 55.92 -1.5 -2.3
2017-12-12 14:00:00 0.2 6552 8.56 7.68 9.24 46.67 -2.2 -2.8
2017-12-12 15:00:00 0.2 6522 9.93 9.46 10.43 42.78 -2.2 -3
2017-12-12 16:00:00 0 6464 9.11 8.13 10.33 46.9 -1.7 -2.3
2017-12-12 17:00:00 0 6424 7.25 6.52 7.96 54.55 -1.3 -1.6
2017-12-12 18:00:00 0 6406 5.9 5.2 6.46 63.24 -0.5 -1.1
2017-12-12 19:00:00 0 6386 4.83 4.64 5.16 72.54 0.2 -0.1
2017-12-12 20:00:00 0 6376 4.13 3.82 4.5 77.6 0.4 0.1
2017-12-12 21:00:00 0 6356 3.73 3.32 4.14 83.16 1 0.7